createdAt,value
2023-01-18T00:03:34.961Z,92.05
2023-01-18T00:08:38.619Z,92.11
2023-01-18T00:13:40.189Z,92.06
2023-01-18T00:18:42.495Z,92.19
2023-01-18T00:23:43.984Z,92.76
2023-01-18T00:28:45.804Z,93.09
2023-01-18T00:33:49.373Z,92.70
2023-01-18T00:38:51.927Z,92.98
2023-01-18T00:43:53.942Z,92.90
2023-01-18T00:48:57.332Z,92.77
2023-01-18T00:53:58.753Z,93.35
2023-01-18T00:59:00.156Z,93.02
2023-01-18T01:04:20.122Z,92.87
2023-01-18T01:09:24.687Z,92.63
2023-01-18T01:14:44.929Z,93.70
2023-01-18T01:20:04.755Z,93.79
2023-01-18T01:25:25.092Z,93.67
2023-01-18T01:30:26.580Z,93.76
2023-01-18T01:35:28.024Z,94.25
2023-01-18T01:40:29.429Z,94.27
2023-01-18T01:45:32.534Z,94.26
2023-01-18T01:50:39.322Z,94.42
2023-01-18T01:55:41.173Z,94.25
2023-01-18T02:00:43.833Z,94.75
2023-01-18T02:05:50.071Z,95.60
2023-01-18T02:10:52.638Z,94.91
2023-01-18T02:16:07.854Z,95.21
2023-01-18T02:21:17.206Z,94.89
2023-01-18T02:26:48.432Z,94.83
2023-01-18T02:32:19.781Z,94.53
2023-01-18T02:37:40.504Z,95.07
2023-01-18T02:43:03.548Z,95.03
2023-01-18T02:48:06.698Z,95.59
2023-01-18T02:53:13.519Z,95.24
2023-01-18T02:58:38.796Z,95.45
2023-01-18T03:03:44.080Z,94.72
2023-01-18T03:08:48.733Z,95.15
2023-01-18T03:13:56.821Z,95.29
2023-01-18T03:19:05.862Z,95.49
2023-01-18T03:24:10.108Z,95.29
2023-01-18T03:29:32.181Z,95.50
2023-01-18T03:34:52.107Z,95.79
2023-01-18T03:39:59.278Z,95.63
2023-01-18T03:45:11.299Z,95.08
2023-01-18T03:50:12.770Z,95.49
2023-01-18T03:55:24.259Z,95.02
2023-01-18T04:00:25.761Z,94.79
2023-01-18T04:05:27.257Z,94.64
2023-01-18T04:10:28.721Z,94.52
2023-01-18T04:15:30.143Z,95.12
2023-01-18T04:20:31.551Z,95.10
2023-01-18T04:25:32.970Z,95.72
2023-01-18T04:30:34.437Z,95.13
2023-01-18T04:35:36.271Z,94.94
2023-01-18T04:40:37.721Z,95.18
2023-01-18T04:45:39.264Z,95.30
2023-01-18T04:50:45.541Z,95.73
2023-01-18T04:55:47.240Z,95.67
2023-01-18T05:00:48.771Z,95.69
2023-01-18T05:05:50.248Z,95.88
2023-01-18T05:10:51.695Z,95.78
2023-01-18T05:15:53.129Z,95.90
2023-01-18T05:20:54.609Z,95.44
2023-01-18T05:25:57.820Z,95.34
2023-01-18T05:30:59.356Z,95.71
2023-01-18T05:36:00.785Z,95.86
2023-01-18T05:41:02.375Z,95.68
2023-01-18T05:46:05.372Z,95.45
2023-01-18T05:51:09.423Z,95.68
2023-01-18T05:56:10.955Z,95.74
2023-01-18T06:01:12.402Z,95.72
2023-01-18T06:06:13.877Z,95.85
2023-01-18T06:11:15.277Z,95.31
2023-01-18T06:16:16.735Z,95.19
2023-01-18T06:21:18.992Z,95.28
2023-01-18T06:26:20.402Z,95.22
2023-01-18T06:31:21.923Z,95.52
2023-01-18T06:36:23.442Z,95.85
2023-01-18T06:41:24.834Z,95.92
2023-01-18T06:46:26.333Z,96.14
2023-01-18T06:51:28.011Z,95.63
2023-01-18T06:56:29.528Z,95.96
2023-01-18T07:01:31.007Z,96.17
2023-01-18T07:06:32.521Z,96.57
2023-01-18T07:11:35.671Z,97.03
2023-01-18T07:16:37.890Z,96.85
2023-01-18T07:21:39.646Z,96.92
2023-01-18T07:26:41.096Z,97.15
2023-01-18T07:31:43.474Z,96.87
2023-01-18T07:36:45.049Z,96.76
2023-01-18T07:41:46.874Z,96.38
2023-01-18T07:46:48.330Z,97.10
2023-01-18T07:51:49.789Z,96.98
2023-01-18T07:56:51.495Z,96.33
2023-01-18T08:01:52.970Z,96.46
2023-01-18T08:06:57.618Z,96.59
2023-01-18T08:11:59.035Z,96.71
2023-01-18T08:17:00.441Z,96.28
2023-01-18T08:22:02.469Z,96.45
2023-01-18T08:27:03.888Z,96.68
2023-01-18T08:32:05.448Z,96.91
2023-01-18T08:37:06.869Z,97.19
2023-01-18T08:42:12.010Z,96.23
2023-01-18T08:47:15.583Z,95.90
2023-01-18T08:52:17.170Z,96.43
2023-01-18T08:57:18.605Z,95.47
2023-01-18T09:02:20.202Z,96.07
2023-01-18T09:07:21.693Z,96.07
2023-01-18T09:12:23.752Z,95.71
2023-01-18T09:17:25.694Z,95.29
2023-01-18T09:22:27.162Z,94.53
2023-01-18T09:27:28.676Z,93.51
2023-01-18T09:32:30.959Z,93.03
2023-01-18T09:37:32.844Z,92.83
2023-01-18T09:42:44.562Z,92.38
2023-01-18T09:47:48.438Z,90.97
2023-01-18T09:53:33.524Z,89.72
2023-01-18T09:58:56.370Z,88.92
2023-01-18T10:04:17.266Z,89.12
2023-01-18T10:09:41.776Z,88.76
2023-01-18T10:15:02.097Z,89.13
2023-01-18T10:20:14.183Z,87.86
2023-01-18T10:25:30.706Z,86.03
2023-01-18T10:30:50.724Z,86.25
2023-01-18T10:36:00.555Z,87.19
2023-01-18T10:41:03.135Z,86.88
2023-01-18T10:46:13.886Z,88.55
2023-01-18T10:51:37.001Z,86.62
2023-01-18T10:56:40.019Z,87.22
2023-01-18T11:01:54.989Z,87.88
2023-01-18T11:06:59.549Z,87.32
2023-01-18T11:12:34.841Z,86.74
2023-01-18T11:17:37.002Z,87.57
2023-01-18T11:22:56.459Z,86.93
2023-01-18T11:28:02.314Z,86.09
2023-01-18T11:33:03.950Z,86.85
2023-01-18T11:38:07.291Z,87.90
2023-01-18T11:43:22.967Z,87.09
2023-01-18T11:48:42.243Z,87.58
2023-01-18T11:54:26.580Z,87.74
2023-01-18T11:59:31.072Z,87.47
2023-01-18T12:04:44.397Z,87.21
2023-01-18T12:09:55.994Z,86.44
2023-01-18T12:15:03.848Z,85.07
2023-01-18T12:20:16.307Z,85.03
2023-01-18T12:25:42.302Z,84.70
2023-01-18T12:30:53.250Z,83.64
2023-01-18T12:36:00.739Z,83.75
2023-01-18T12:41:27.231Z,84.23
2023-01-18T12:46:38.473Z,84.84
2023-01-18T12:51:41.321Z,83.39
2023-01-18T12:56:48.518Z,83.29
2023-01-18T13:01:57.479Z,85.04
2023-01-18T13:07:07.090Z,83.92
2023-01-18T13:12:09.563Z,82.66
2023-01-18T13:17:17.164Z,81.06
2023-01-18T13:22:46.781Z,80.95
2023-01-18T13:28:23.753Z,82.93
2023-01-18T13:33:28.371Z,82.50
2023-01-18T13:38:40.978Z,83.62
2023-01-18T13:43:42.903Z,82.65
2023-01-18T13:48:50.976Z,83.45
2023-01-18T13:53:53.191Z,83.22
2023-01-18T13:58:58.503Z,83.67
2023-01-18T14:04:23.229Z,85.03
2023-01-18T14:09:47.066Z,85.63
2023-01-18T14:14:57.049Z,86.18
2023-01-18T14:20:18.269Z,86.14
2023-01-18T14:25:32.091Z,86.20
2023-01-18T14:30:36.488Z,85.57
2023-01-18T14:35:38.965Z,84.90
2023-01-18T14:40:44.829Z,84.57
2023-01-18T14:46:03.704Z,83.80
2023-01-18T14:51:07.005Z,83.07
2023-01-18T14:56:08.579Z,82.48
2023-01-18T15:01:30.028Z,84.15
2023-01-18T15:06:40.381Z,84.27
2023-01-18T15:11:44.310Z,85.07
2023-01-18T15:16:48.527Z,85.75
2023-01-18T15:21:50.680Z,86.24
2023-01-18T15:27:00.993Z,86.05
2023-01-18T15:32:13.347Z,86.70
2023-01-18T15:37:21.761Z,86.86
2023-01-18T15:42:42.964Z,87.67
2023-01-18T15:47:51.976Z,88.32
2023-01-18T15:53:14.237Z,89.21
2023-01-18T15:58:36.574Z,89.56
2023-01-18T16:03:46.007Z,90.92
2023-01-18T16:08:56.742Z,90.56
2023-01-18T16:14:00.489Z,91.53
2023-01-18T16:19:07.033Z,91.74
2023-01-18T16:24:41.081Z,92.15
2023-01-18T16:29:48.010Z,92.51
2023-01-18T16:34:49.655Z,92.86
2023-01-18T16:39:51.356Z,92.80
2023-01-18T16:44:53.917Z,93.37
2023-01-18T16:49:55.381Z,93.49
2023-01-18T16:54:56.790Z,93.43
2023-01-18T16:59:58.269Z,93.07
2023-01-18T17:04:59.663Z,92.77
2023-01-18T17:10:01.108Z,92.81
2023-01-18T17:15:02.529Z,94.20
2023-01-18T17:20:21.334Z,93.05
2023-01-18T17:25:24.113Z,92.97
2023-01-18T17:30:25.729Z,92.89
2023-01-18T17:35:28.509Z,92.79
2023-01-18T17:40:39.369Z,93.32
2023-01-18T17:45:48.398Z,92.75
2023-01-18T17:50:52.759Z,93.11
2023-01-18T17:55:55.019Z,93.23
2023-01-18T18:00:56.851Z,92.60
2023-01-18T18:05:59.621Z,92.22
2023-01-18T18:11:02.373Z,91.85
2023-01-18T18:16:04.661Z,91.87
2023-01-18T18:21:07.323Z,91.67
2023-01-18T18:26:09.091Z,91.13
2023-01-18T18:31:16.964Z,90.70
2023-01-18T18:36:18.549Z,90.13
2023-01-18T18:41:20.050Z,90.20
2023-01-18T18:46:21.604Z,89.91
2023-01-18T18:51:23.903Z,89.43
2023-01-18T18:56:25.321Z,89.65
2023-01-18T19:01:31.793Z,89.10
2023-01-18T19:06:33.416Z,89.29
2023-01-18T19:11:36.096Z,88.90
2023-01-18T19:16:39.190Z,88.98
2023-01-18T19:21:42.249Z,88.34
2023-01-18T19:26:44.924Z,88.82
2023-01-18T19:31:46.752Z,88.75
2023-01-18T19:36:49.101Z,88.48
2023-01-18T19:41:50.575Z,88.43
2023-01-18T19:46:52.939Z,88.76
2023-01-18T19:51:54.930Z,88.94
2023-01-18T19:56:56.525Z,89.19
2023-01-18T20:01:58.109Z,88.88
2023-01-18T20:07:01.719Z,89.44
2023-01-18T20:12:03.309Z,89.04
2023-01-18T20:17:04.716Z,88.55
2023-01-18T20:22:06.348Z,88.74
2023-01-18T20:27:15.764Z,88.73
2023-01-18T20:32:18.389Z,88.52
2023-01-18T20:37:20.076Z,88.12
2023-01-18T20:42:21.791Z,88.11
2023-01-18T20:47:23.235Z,88.17
2023-01-18T20:52:24.722Z,87.71
2023-01-18T20:57:30.229Z,87.79
2023-01-18T21:02:31.757Z,88.03
2023-01-18T21:07:33.199Z,88.27
2023-01-18T21:12:34.785Z,87.99
2023-01-18T21:17:36.527Z,88.09
2023-01-18T21:22:37.939Z,88.59
2023-01-18T21:27:43.178Z,88.65
2023-01-18T21:32:45.240Z,88.27
2023-01-18T21:37:46.646Z,88.92
2023-01-18T21:43:06.677Z,89.04
2023-01-18T21:48:08.730Z,88.91
2023-01-18T21:53:33.553Z,89.07
2023-01-18T21:58:52.956Z,89.73
2023-01-18T22:04:13.729Z,89.31
2023-01-18T22:09:15.786Z,89.71
2023-01-18T22:14:17.347Z,89.66
2023-01-18T22:19:19.190Z,89.38
2023-01-18T22:24:20.681Z,89.50
2023-01-18T22:29:22.104Z,89.71
2023-01-18T22:34:23.541Z,89.65
2023-01-18T22:39:25.368Z,90.04
2023-01-18T22:44:26.833Z,89.83
2023-01-18T22:49:28.232Z,90.31
2023-01-18T22:54:29.648Z,90.40
2023-01-18T22:59:31.288Z,90.78
2023-01-18T23:04:34.317Z,91.06
2023-01-18T23:09:35.810Z,90.99
2023-01-18T23:14:55.593Z,90.13
2023-01-18T23:19:56.985Z,90.26
2023-01-18T23:24:58.415Z,90.08
2023-01-18T23:29:59.882Z,89.85
2023-01-18T23:35:01.953Z,89.43
2023-01-18T23:40:22.645Z,88.85
2023-01-18T23:45:42.514Z,89.10
2023-01-18T23:51:02.514Z,90.03
2023-01-18T23:56:04.014Z,89.32
